createdAt,value
2018-11-20T00:01:51.256Z,100285.50
2018-11-20T00:04:40.140Z,100279.70
2018-11-20T00:07:29.163Z,100275.95
2018-11-20T00:10:18.089Z,100277.98
2018-11-20T00:13:07.314Z,100269.06
2018-11-20T00:16:15.218Z,100268.72
2018-11-20T00:19:04.118Z,100273.77
2018-11-20T00:22:12.028Z,100274.45
2018-11-20T00:25:01.328Z,100279.47
2018-11-20T00:27:44.212Z,100276.83
2018-11-20T00:30:33.156Z,100288.11
2018-11-20T00:33:11.566Z,100284.66
2018-11-20T00:36:00.474Z,100295.79
2018-11-20T00:38:49.384Z,100295.84
2018-11-20T00:41:38.342Z,100296.21
2018-11-20T00:44:27.257Z,100294.09
2018-11-20T00:47:16.424Z,100294.85
2018-11-20T00:50:05.334Z,100289.73
2018-11-20T00:52:54.226Z,100279.17
2018-11-20T00:56:21.196Z,100284.13
2018-11-20T00:59:10.083Z,100276.53
2018-11-20T01:01:59.102Z,100277.17
2018-11-20T01:04:48.135Z,100267.73
2018-11-20T01:07:37.017Z,100271.09
2018-11-20T01:10:26.155Z,100267.41
2018-11-20T01:13:08.344Z,100262.48
2018-11-20T01:15:57.245Z,100266.16
2018-11-20T01:18:46.166Z,100256.41
2018-11-20T01:21:35.060Z,100249.05
2018-11-20T01:24:23.970Z,100254.02
2018-11-20T01:27:05.174Z,100238.73
2018-11-20T01:29:54.071Z,100233.66
2018-11-20T01:32:42.947Z,100230.69
2018-11-20T01:35:31.825Z,100224.38
2018-11-20T01:38:20.706Z,100215.37
2018-11-20T01:40:59.933Z,100204.05
2018-11-20T01:44:07.826Z,100198.64
2018-11-20T01:46:56.710Z,100185.45
2018-11-20T01:49:45.582Z,100173.44
2018-11-20T01:52:53.488Z,100179.23
2018-11-20T01:55:42.378Z,100167.84
2018-11-20T01:58:50.264Z,100167.84
2018-11-20T02:01:39.201Z,100163.00
2018-11-20T02:04:28.079Z,100160.80
2018-11-20T02:07:16.985Z,100157.12
2018-11-20T02:09:56.762Z,100151.41
2018-11-20T02:12:45.641Z,100152.58
2018-11-20T02:15:53.534Z,100146.55
2018-11-20T02:18:42.420Z,100153.98
2018-11-20T02:21:31.313Z,100144.06
2018-11-20T02:24:20.192Z,100142.66
2018-11-20T02:27:09.122Z,100137.62
2018-11-20T02:29:58.030Z,100139.81
2018-11-20T02:32:46.934Z,100130.78
2018-11-20T02:35:35.849Z,100126.02
2018-11-20T02:38:25.057Z,100131.30
2018-11-20T02:41:13.874Z,100115.03
2018-11-20T02:43:56.366Z,100118.16
2018-11-20T02:46:45.268Z,100128.64
2018-11-20T02:49:34.139Z,100117.00
2018-11-20T02:52:23.032Z,100124.77
2018-11-20T02:55:11.972Z,100127.61
2018-11-20T02:58:19.908Z,100126.31
2018-11-20T03:00:59.668Z,100125.80
2018-11-20T03:03:48.733Z,100148.23
2018-11-20T03:06:26.128Z,100152.70
2018-11-20T03:09:15.024Z,100148.03
2018-11-20T03:12:03.926Z,100149.19
2018-11-20T03:14:52.830Z,100153.74
2018-11-20T03:17:41.717Z,100151.91
2018-11-20T03:20:30.615Z,100156.45
2018-11-20T03:23:19.549Z,100153.89
2018-11-20T03:26:08.449Z,100158.77
2018-11-20T03:28:52.302Z,100154.08
2018-11-20T03:32:10.925Z,100143.67
2018-11-20T03:35:20.603Z,100142.11
2018-11-20T03:38:30.311Z,100141.03
2018-11-20T03:41:29.656Z,100136.63
2018-11-20T03:44:07.143Z,100141.17
2018-11-20T03:46:56.099Z,100134.30
2018-11-20T03:49:44.989Z,100117.34
2018-11-20T03:52:34.229Z,100117.62
2018-11-20T03:55:42.256Z,100111.84
2018-11-20T03:58:31.238Z,100118.80
2018-11-20T04:01:20.295Z,100117.27
2018-11-20T04:04:28.183Z,100117.63
2018-11-20T04:07:17.071Z,100094.52
2018-11-20T04:10:05.935Z,100105.22
2018-11-20T04:12:55.113Z,100101.78
2018-11-20T04:15:43.995Z,100096.08
2018-11-20T04:18:33.254Z,100106.78
2018-11-20T04:21:22.151Z,100102.02
2018-11-20T04:24:11.126Z,100107.86
2018-11-20T04:27:00.044Z,100102.83
2018-11-20T04:29:48.925Z,100097.16
2018-11-20T04:32:27.861Z,100088.89
2018-11-20T04:35:18.424Z,100093.58
2018-11-20T04:38:07.304Z,100103.03
2018-11-20T04:40:56.200Z,100095.11
2018-11-20T04:43:45.078Z,100094.09
2018-11-20T04:46:26.079Z,100097.30
2018-11-20T04:49:14.937Z,100081.63
2018-11-20T04:51:53.508Z,100077.28
2018-11-20T04:54:42.370Z,100082.78
2018-11-20T04:57:31.334Z,100090.49
2018-11-20T05:00:20.153Z,100098.14
2018-11-20T05:03:09.037Z,100091.02
2018-11-20T05:06:16.930Z,100080.06
2018-11-20T05:09:05.833Z,100071.93
2018-11-20T05:11:42.788Z,100083.09
2018-11-20T05:14:31.726Z,100087.64
2018-11-20T05:17:20.621Z,100078.95
2018-11-20T05:20:09.492Z,100074.19
2018-11-20T05:22:58.454Z,100078.73
2018-11-20T05:25:38.874Z,100088.05
2018-11-20T05:28:27.772Z,100096.42
2018-11-20T05:31:16.871Z,100093.66
2018-11-20T05:33:58.197Z,100098.63
2018-11-20T05:36:47.079Z,100077.49
2018-11-20T05:39:35.977Z,100075.09
2018-11-20T05:42:43.969Z,100064.53
2018-11-20T05:45:32.870Z,100067.66
2018-11-20T05:48:35.586Z,100069.43
2018-11-20T05:51:24.694Z,100071.63
2018-11-20T05:54:04.893Z,100067.17
2018-11-20T05:56:53.785Z,100081.25
2018-11-20T05:59:42.978Z,100074.98
2018-11-20T06:02:31.872Z,100064.08
2018-11-20T06:05:09.072Z,100069.42
2018-11-20T06:07:47.185Z,100060.63
2018-11-20T06:10:36.097Z,100064.00
2018-11-20T06:13:25.031Z,100070.89
2018-11-20T06:16:13.944Z,100073.32
2018-11-20T06:19:02.962Z,100074.13
2018-11-20T06:21:51.791Z,100081.25
2018-11-20T06:24:40.762Z,100078.39
2018-11-20T06:27:29.738Z,100074.92
2018-11-20T06:30:18.665Z,100075.65
2018-11-20T06:33:07.549Z,100075.58
2018-11-20T06:35:56.447Z,100070.81
2018-11-20T06:38:45.331Z,100059.97
2018-11-20T06:41:34.215Z,100067.37
2018-11-20T06:44:42.184Z,100071.27
2018-11-20T06:47:31.085Z,100068.98
2018-11-20T06:50:20.284Z,100066.92
2018-11-20T06:53:28.321Z,100065.09
2018-11-20T06:56:10.204Z,100056.73
2018-11-20T06:58:59.084Z,100061.95
2018-11-20T07:01:48.034Z,100061.64
2018-11-20T07:04:36.927Z,100059.97
2018-11-20T07:07:25.979Z,100054.17
2018-11-20T07:10:33.818Z,100056.43
2018-11-20T07:13:43.151Z,100057.54
2018-11-20T07:16:52.090Z,100060.11
2018-11-20T07:19:46.054Z,100058.59
2018-11-20T07:22:35.748Z,100058.66
2018-11-20T07:25:24.964Z,100059.14
2018-11-20T07:28:13.872Z,100055.34
2018-11-20T07:31:00.750Z,100051.22
2018-11-20T07:33:49.544Z,100062.09
2018-11-20T07:36:38.615Z,100054.52
2018-11-20T07:39:27.622Z,100066.19
2018-11-20T07:42:16.804Z,100057.26
2018-11-20T07:45:05.694Z,100057.39
2018-11-20T07:48:10.798Z,100047.03
2018-11-20T07:51:18.746Z,100053.36
2018-11-20T07:54:07.720Z,100040.80
2018-11-20T07:57:15.683Z,100044.45
2018-11-20T08:00:04.585Z,100031.23
2018-11-20T08:02:54.376Z,100031.45
2018-11-20T08:05:49.343Z,100027.29
2018-11-20T08:08:38.300Z,100022.66
2018-11-20T08:11:46.202Z,100025.82
2018-11-20T08:14:35.096Z,100026.23
2018-11-20T08:17:23.989Z,100022.85
2018-11-20T08:20:12.904Z,100022.36
2018-11-20T08:23:20.860Z,100009.70
2018-11-20T08:26:10.009Z,100013.58
2018-11-20T08:28:58.655Z,100009.25
2018-11-20T08:31:47.908Z,100011.64
2018-11-20T08:34:37.129Z,100006.82
2018-11-20T08:37:26.012Z,100009.00
2018-11-20T08:40:33.898Z,100001.38
2018-11-20T08:43:41.864Z,99999.02
2018-11-20T08:46:31.048Z,99988.96
2018-11-20T08:49:19.960Z,100005.93
2018-11-20T08:52:08.844Z,100002.64
2018-11-20T08:54:57.858Z,100005.09
2018-11-20T08:58:05.825Z,100006.42
2018-11-20T09:00:44.908Z,100018.25
2018-11-20T09:03:33.838Z,100019.05
2018-11-20T09:06:22.727Z,100014.75
2018-11-20T09:09:11.703Z,100014.75
2018-11-20T09:12:19.606Z,100011.24
2018-11-20T09:15:27.522Z,100015.92
2018-11-20T09:18:16.402Z,100008.76
2018-11-20T09:20:59.418Z,100010.36
2018-11-20T09:23:39.489Z,100007.62
2018-11-20T09:26:28.505Z,100007.34
2018-11-20T09:29:17.405Z,100010.81
2018-11-20T09:32:06.290Z,100003.13
2018-11-20T09:35:14.717Z,100003.03
2018-11-20T09:38:03.351Z,100004.97
2018-11-20T09:41:11.315Z,99998.55
2018-11-20T09:44:30.153Z,99989.93
2018-11-20T09:47:19.121Z,99990.57
2018-11-20T09:50:28.260Z,99983.90
2018-11-20T09:53:17.120Z,99990.35
2018-11-20T09:56:06.293Z,99991.57
2018-11-20T09:58:55.162Z,99991.69
2018-11-20T10:02:03.238Z,99980.88
2018-11-20T10:04:52.184Z,99983.97
2018-11-20T10:07:41.082Z,99982.48
2018-11-20T10:10:30.015Z,99975.81
2018-11-20T10:13:16.132Z,99971.73
2018-11-20T10:16:24.029Z,99967.88
2018-11-20T10:19:12.895Z,99972.70
2018-11-20T10:22:01.978Z,99975.87
2018-11-20T10:24:50.849Z,99975.55
2018-11-20T10:27:39.837Z,99964.81
2018-11-20T10:30:28.821Z,99970.35
2018-11-20T10:33:17.857Z,99964.09
2018-11-20T10:36:06.814Z,99965.58
2018-11-20T10:38:55.713Z,99962.53
2018-11-20T10:41:44.663Z,99960.91
2018-11-20T10:44:33.673Z,99962.53
2018-11-20T10:47:11.373Z,99957.77
2018-11-20T10:50:00.344Z,99967.09
2018-11-20T10:52:49.285Z,99958.92
2018-11-20T10:55:38.117Z,99941.84
2018-11-20T10:58:27.010Z,99948.16
2018-11-20T11:01:16.351Z,99945.66
2018-11-20T11:04:05.262Z,99943.64
2018-11-20T11:06:55.629Z,99940.37
2018-11-20T11:09:44.515Z,99940.22
2018-11-20T11:12:52.429Z,99939.70
2018-11-20T11:15:41.323Z,99936.66
2018-11-20T11:18:49.193Z,99934.60
2018-11-20T11:21:38.091Z,99940.65
2018-11-20T11:24:26.975Z,99928.63
2018-11-20T11:27:15.849Z,99938.44
2018-11-20T11:29:56.506Z,99922.05
2018-11-20T11:32:35.081Z,99918.23
2018-11-20T11:35:24.455Z,99913.31
2018-11-20T11:38:13.264Z,99905.52
2018-11-20T11:41:02.412Z,99917.27
2018-11-20T11:44:29.345Z,99921.55
2018-11-20T11:47:18.241Z,99918.52
2018-11-20T11:50:07.185Z,99908.30
2018-11-20T11:52:56.150Z,99920.35
2018-11-20T11:55:45.294Z,99908.30
2018-11-20T11:58:26.453Z,99905.83
2018-11-20T12:01:15.782Z,99900.56
2018-11-20T12:06:53.212Z,99889.27
2018-11-20T12:09:36.234Z,99872.14
2018-11-20T12:12:25.144Z,99877.03
2018-11-20T12:15:33.082Z,99877.25
2018-11-20T12:18:22.009Z,99866.61
2018-11-20T12:21:10.938Z,99854.88
2018-11-20T12:24:00.191Z,99853.50
2018-11-20T12:26:49.079Z,99837.15
2018-11-20T12:29:57.377Z,99832.72
2018-11-20T12:32:47.156Z,99842.15
2018-11-20T12:35:36.197Z,99826.33
2018-11-20T12:38:14.644Z,99830.07
2018-11-20T12:41:03.542Z,99827.13
2018-11-20T12:43:52.412Z,99818.75
2018-11-20T12:46:41.300Z,99814.34
2018-11-20T12:49:32.123Z,99806.88
2018-11-20T12:52:38.068Z,99806.97
2018-11-20T12:55:27.545Z,99818.84
2018-11-20T12:58:16.455Z,99817.78
2018-11-20T13:01:24.647Z,99815.64
2018-11-20T13:04:13.604Z,99817.81
2018-11-20T13:06:56.367Z,99826.52
2018-11-20T13:09:45.254Z,99807.38
2018-11-20T13:12:34.139Z,99801.14
2018-11-20T13:15:23.047Z,99795.34
2018-11-20T13:18:12.217Z,99800.06
2018-11-20T13:21:01.112Z,99792.70
2018-11-20T13:24:09.750Z,99797.42
2018-11-20T13:26:58.070Z,99782.08
2018-11-20T13:29:46.954Z,99788.86
2018-11-20T13:32:54.918Z,99780.87
2018-11-20T13:35:43.851Z,99763.47
2018-11-20T13:38:33.334Z,99779.97
2018-11-20T13:41:59.680Z,99783.36
2018-11-20T13:44:51.957Z,99775.44
2018-11-20T13:47:40.187Z,99770.10
2018-11-20T13:50:29.059Z,99776.41
2018-11-20T13:53:18.008Z,99779.24
2018-11-20T13:55:57.105Z,99772.80
2018-11-20T13:58:37.261Z,99778.88
2018-11-20T14:01:26.583Z,99787.34
2018-11-20T14:04:15.549Z,99786.53
2018-11-20T14:07:23.531Z,99793.00
2018-11-20T14:09:58.921Z,99796.96
2018-11-20T14:12:47.830Z,99798.91
2018-11-20T14:15:36.774Z,99805.24
2018-11-20T14:18:25.817Z,99808.47
2018-11-20T14:21:14.722Z,99814.38
2018-11-20T14:24:03.634Z,99815.39
2018-11-20T14:26:52.776Z,99813.73
2018-11-20T14:29:49.330Z,99788.34
2018-11-20T14:35:51.335Z,99770.48
2018-11-20T14:38:59.241Z,99777.29
2018-11-20T14:41:48.244Z,99770.21
2018-11-20T14:44:24.367Z,99772.63
2018-11-20T14:47:13.292Z,99777.20
2018-11-20T14:50:02.235Z,99792.84
2018-11-20T14:52:51.110Z,99802.50
2018-11-20T14:55:39.966Z,99805.31
2018-11-20T14:58:28.905Z,99798.48
2018-11-20T15:01:17.932Z,99802.60
2018-11-20T15:04:07.157Z,99809.30
2018-11-20T15:06:56.035Z,99803.86
2018-11-20T15:09:44.963Z,99802.60
2018-11-20T15:12:33.832Z,99799.05
2018-11-20T15:15:23.013Z,99798.95
2018-11-20T15:18:11.917Z,99792.14
2018-11-20T15:21:00.834Z,99788.70
2018-11-20T15:23:37.551Z,99791.03
2018-11-20T15:26:45.452Z,99789.72
2018-11-20T15:29:34.398Z,99783.88
2018-11-20T15:32:38.827Z,99784.78
2018-11-20T15:35:27.731Z,99787.42
2018-11-20T15:38:16.931Z,99781.86
2018-11-20T15:41:24.818Z,99792.12
2018-11-20T15:44:13.673Z,99787.58
2018-11-20T15:47:02.624Z,99800.30
2018-11-20T15:49:51.552Z,99805.33
2018-11-20T15:52:40.431Z,99809.02
2018-11-20T15:55:29.315Z,99817.95
2018-11-20T15:58:18.202Z,99805.63
2018-11-20T16:01:07.150Z,99817.21
2018-11-20T16:04:15.706Z,99816.45
2018-11-20T16:07:04.593Z,99817.25
2018-11-20T16:09:53.504Z,99819.89
2018-11-20T16:12:42.407Z,99818.23
2018-11-20T16:15:31.278Z,99810.52
2018-11-20T16:18:20.151Z,99815.87
2018-11-20T16:21:28.031Z,99816.11
2018-11-20T16:24:16.945Z,99817.50
2018-11-20T16:27:05.847Z,99820.99
2018-11-20T16:30:13.734Z,99831.16
2018-11-20T16:33:02.653Z,99832.48
2018-11-20T16:35:41.413Z,99832.69
2018-11-20T16:38:30.287Z,99831.70
2018-11-20T16:41:19.161Z,99837.14
2018-11-20T16:44:08.347Z,99840.36
2018-11-20T16:46:58.991Z,99839.10
2018-11-20T16:49:48.020Z,99845.77
2018-11-20T16:52:36.988Z,99848.83
2018-11-20T16:55:25.995Z,99846.34
2018-11-20T16:58:14.966Z,99853.31
2018-11-20T17:01:04.048Z,99847.05
2018-11-20T17:04:11.993Z,99845.93
2018-11-20T17:07:00.878Z,99855.35
2018-11-20T17:09:50.104Z,99859.05
2018-11-20T17:12:39.007Z,99859.58
2018-11-20T17:15:28.448Z,99864.86
2018-11-20T17:18:17.673Z,99871.93
2018-11-20T17:21:06.546Z,99867.62
2018-11-20T17:24:14.507Z,99872.45
2018-11-20T17:27:22.394Z,99869.47
2018-11-20T17:30:11.270Z,99873.67
2018-11-20T17:33:00.148Z,99870.20
2018-11-20T17:35:49.091Z,99865.97
2018-11-20T17:38:37.992Z,99862.00
2018-11-20T17:41:45.864Z,99867.91
2018-11-20T17:44:34.730Z,99871.34
2018-11-20T17:47:15.229Z,99866.18
2018-11-20T17:50:04.142Z,99872.57
2018-11-20T17:52:53.071Z,99877.73
2018-11-20T17:56:01.050Z,99868.39
2018-11-20T17:59:26.387Z,99872.97
2018-11-20T18:02:15.811Z,99863.02
2018-11-20T18:05:04.008Z,99867.23
2018-11-20T18:07:56.212Z,99860.52
2018-11-20T18:10:40.167Z,99865.54
2018-11-20T18:13:16.883Z,99855.03
2018-11-20T18:16:04.970Z,99860.04
2018-11-20T18:18:53.239Z,99856.30
2018-11-20T18:21:41.303Z,99863.42
2018-11-20T18:24:23.225Z,99864.86
2018-11-20T18:27:05.865Z,99860.04
2018-11-20T18:29:54.285Z,99866.92
2018-11-20T18:32:39.798Z,99871.07
2018-11-20T18:35:47.417Z,99864.53
2018-11-20T18:38:35.718Z,99865.38
2018-11-20T18:41:43.260Z,99871.41
2018-11-20T18:44:31.321Z,99868.19
2018-11-20T18:47:19.507Z,99868.55
2018-11-20T18:50:07.749Z,99868.30
2018-11-20T18:52:55.867Z,99887.88
2018-11-20T18:55:43.944Z,99879.00
2018-11-20T18:58:32.019Z,99884.38
2018-11-20T19:01:21.096Z,99882.16
2018-11-20T19:04:09.172Z,99892.20
2018-11-20T19:06:57.548Z,99897.86
2018-11-20T19:09:45.636Z,99898.75
2018-11-20T19:12:53.167Z,99903.08
2018-11-20T19:15:41.253Z,99913.55
2018-11-20T19:18:29.338Z,99910.70
2018-11-20T19:21:17.427Z,99911.22
2018-11-20T19:24:05.662Z,99906.24
2018-11-20T19:26:41.759Z,99904.03
2018-11-20T19:29:30.037Z,99909.07
2018-11-20T19:32:18.128Z,99911.66
2018-11-20T19:35:06.613Z,99926.12
2018-11-20T19:37:54.762Z,99930.20
2018-11-20T19:40:42.875Z,99930.88
2018-11-20T19:43:31.031Z,99936.81
2018-11-20T19:46:38.579Z,99933.95
2018-11-20T19:49:26.752Z,99943.27
2018-11-20T19:52:14.920Z,99946.40
2018-11-20T19:55:03.081Z,99942.86
2018-11-20T19:57:51.176Z,99951.47
2018-11-20T20:00:39.297Z,99945.53
2018-11-20T20:03:38.703Z,99939.70
2018-11-20T20:06:26.848Z,99931.19
2018-11-20T20:09:15.015Z,99935.58
2018-11-20T20:12:03.078Z,99937.48
2018-11-20T20:14:51.371Z,99941.17
2018-11-20T20:17:39.480Z,99950.84
2018-11-20T20:23:23.600Z,99952.63
2018-11-20T20:26:10.016Z,99952.86
2018-11-20T20:28:58.092Z,99954.90
2018-11-20T20:31:46.254Z,99958.34
2018-11-20T20:34:34.433Z,99960.39
2018-11-20T20:37:22.500Z,99960.33
2018-11-20T20:40:10.591Z,99961.99
2018-11-20T20:42:59.270Z,99967.65
2018-11-20T20:45:46.779Z,99970.29
2018-11-20T20:48:35.850Z,99967.44
2018-11-20T20:51:23.104Z,99962.56
2018-11-20T20:54:12.588Z,99967.50
2018-11-20T20:56:59.354Z,99974.59
2018-11-20T20:59:47.731Z,99970.57
2018-11-20T21:02:35.889Z,99971.67
2018-11-20T21:05:26.418Z,99978.43
2018-11-20T21:08:14.474Z,99977.55
2018-11-20T21:11:03.040Z,99982.03
2018-11-20T21:13:51.366Z,99985.18
2018-11-20T21:16:39.432Z,99984.45
2018-11-20T21:19:27.518Z,99984.17
2018-11-20T21:22:15.596Z,99981.73
2018-11-20T21:25:03.790Z,99985.63
2018-11-20T21:27:51.897Z,99983.58
2018-11-20T21:30:43.321Z,99983.58
2018-11-20T21:33:29.921Z,99988.86
2018-11-20T21:36:38.515Z,99997.81
2018-11-20T21:39:46.782Z,99994.95
2018-11-20T21:42:55.131Z,99993.63
2018-11-20T21:45:43.926Z,100000.88
2018-11-20T21:48:33.583Z,99998.48
2018-11-20T21:51:41.360Z,100003.18
2018-11-20T21:54:19.081Z,99999.14
2018-11-20T21:57:07.969Z,99996.64
2018-11-20T22:00:37.173Z,100003.18
2018-11-20T22:03:45.940Z,100006.89
2018-11-20T22:07:13.527Z,100003.83
2018-11-20T22:10:01.648Z,100005.64
2018-11-20T22:12:49.761Z,100006.48
2018-11-20T22:15:37.928Z,100013.95
2018-11-20T22:18:18.526Z,100014.29
2018-11-20T22:21:07.612Z,100016.72
2018-11-20T22:24:15.542Z,100013.63
2018-11-20T22:27:03.644Z,100016.13
2018-11-20T22:29:53.013Z,100019.38
2018-11-20T22:33:20.675Z,100027.17
2018-11-20T22:36:09.646Z,100025.77
2018-11-20T22:39:37.390Z,100038.11
2018-11-20T22:42:26.175Z,100040.44
2018-11-20T22:45:33.939Z,100040.16
2018-11-20T22:48:22.824Z,100036.13
2018-11-20T22:51:10.985Z,100037.88
2018-11-20T22:53:59.345Z,100031.66
2018-11-20T22:56:35.048Z,100029.67
2018-11-20T22:59:23.168Z,100028.20
2018-11-20T23:02:11.303Z,100036.13
2018-11-20T23:05:10.032Z,100032.10
2018-11-20T23:07:58.107Z,100039.33
2018-11-20T23:10:46.199Z,100041.24
2018-11-20T23:13:34.295Z,100041.97
2018-11-20T23:16:03.250Z,100036.41
2018-11-20T23:18:32.762Z,100039.25
2018-11-20T23:21:01.897Z,100036.41
2018-11-20T23:23:50.234Z,100042.14
2018-11-20T23:26:19.223Z,100040.30
2018-11-20T23:29:07.292Z,100041.97
2018-11-20T23:31:36.500Z,100039.71
2018-11-20T23:34:25.142Z,100041.09
2018-11-20T23:37:13.848Z,100041.24
2018-11-20T23:40:21.909Z,100043.09
2018-11-20T23:43:09.999Z,100039.98
2018-11-20T23:45:58.154Z,100038.00
2018-11-20T23:48:27.352Z,100036.41
2018-11-20T23:50:56.348Z,100034.14
2018-11-20T23:53:44.522Z,100040.66
2018-11-20T23:56:13.688Z,100041.84
2018-11-20T23:59:01.786Z,100038.66
